Terminal Aerodrome Forecast
Issued by NWS Albany, NY

Home | Current Version | Previous Version | Text Only | Print | Product List | Glossary On
Versions: 1 2 3 4 5 6 7 8 9 10 11 12 13 14
000
FTUS41 KALY 221700 RRA
TAFALB
TAF
KALB 221744Z 2218/2318 00000KT P6SM FEW035 SCT090
     FM230200 19005KT P6SM BKN040
     FM231000 18003KT 5SM BR SKC
     FM231300 19008KT 6SM HZ SCT250
     FM231700 24008KT P6SM SCT250=

USA.gov is the U.S. government's official web portal to all federal, state and local government web resources and services.